createdAt,value
2023-01-17T00:00:38.259Z,99.48
2023-01-17T00:01:57.963Z,99.63
2023-01-17T00:03:01.809Z,99.80
2023-01-17T00:04:23.985Z,99.72
2023-01-17T00:05:46.606Z,99.73
2023-01-17T00:07:10.801Z,99.44
2023-01-17T00:08:34.131Z,99.55
2023-01-17T00:09:56.077Z,99.49
2023-01-17T00:10:59.821Z,99.47
2023-01-17T00:12:05.897Z,99.77
2023-01-17T00:13:15.881Z,99.84
2023-01-17T00:14:19.837Z,99.70
2023-01-17T00:15:25.563Z,99.87
2023-01-17T00:16:32.549Z,100.00
2023-01-17T00:17:36.207Z,99.79
2023-01-17T00:18:40.007Z,99.70
2023-01-17T00:20:02.370Z,99.75
2023-01-17T00:21:24.907Z,100.00
2023-01-17T00:22:51.487Z,99.99
2023-01-17T00:24:13.717Z,100.00
2023-01-17T00:25:46.032Z,100.00
2023-01-17T00:27:11.477Z,100.00
2023-01-17T00:28:16.051Z,100.00
2023-01-17T00:29:19.708Z,100.00
2023-01-17T00:30:23.879Z,100.00
2023-01-17T00:31:28.215Z,100.00
2023-01-17T00:32:31.837Z,100.00
2023-01-17T00:33:36.533Z,100.00
2023-01-17T00:34:40.364Z,100.00
2023-01-17T00:35:46.665Z,100.00
2023-01-17T00:36:50.657Z,100.00
2023-01-17T00:38:17.674Z,100.00
2023-01-17T00:39:21.584Z,100.00
2023-01-17T00:40:25.574Z,100.00
2023-01-17T00:41:29.213Z,100.00
2023-01-17T00:42:32.906Z,100.00
2023-01-17T00:43:55.601Z,100.00
2023-01-17T00:45:17.895Z,99.50
2023-01-17T00:46:40.687Z,99.85
2023-01-17T00:48:09.351Z,99.82
2023-01-17T00:49:33.518Z,99.62
2023-01-17T00:50:57.008Z,99.78
2023-01-17T00:52:20.283Z,99.67
2023-01-17T00:53:42.352Z,99.52
2023-01-17T00:55:04.776Z,99.67
2023-01-17T00:56:32.734Z,99.36
2023-01-17T00:57:54.619Z,100.00
2023-01-17T00:59:16.970Z,100.00
2023-01-17T01:00:39.386Z,100.00
2023-01-17T01:02:01.858Z,99.87
2023-01-17T01:03:32.834Z,99.86
2023-01-17T01:04:55.260Z,99.80
2023-01-17T01:06:17.613Z,99.55
2023-01-17T01:07:39.938Z,99.35
2023-01-17T01:09:02.145Z,99.25
2023-01-17T01:10:25.664Z,99.33
2023-01-17T01:11:51.202Z,99.24
2023-01-17T01:13:13.872Z,99.06
2023-01-17T01:14:36.946Z,98.86
2023-01-17T01:15:59.674Z,98.00
2023-01-17T01:17:21.682Z,98.19
2023-01-17T01:18:45.026Z,97.84
2023-01-17T01:20:14.928Z,97.13
2023-01-17T01:21:37.364Z,97.60
2023-01-17T01:22:59.538Z,98.70
2023-01-17T01:24:22.276Z,98.47
2023-01-17T01:25:44.486Z,98.50
2023-01-17T01:27:09.911Z,98.72
2023-01-17T01:28:34.437Z,98.21
2023-01-17T01:29:56.854Z,98.32
2023-01-17T01:31:21.694Z,98.38
2023-01-17T01:32:44.174Z,98.20
2023-01-17T01:33:48.089Z,98.27
2023-01-17T01:34:51.847Z,97.88
2023-01-17T01:35:56.167Z,97.81
2023-01-17T01:37:00.150Z,98.00
2023-01-17T01:38:04.423Z,97.91
2023-01-17T01:39:12.444Z,97.79
2023-01-17T01:40:18.629Z,97.65
2023-01-17T01:41:22.629Z,97.83
2023-01-17T01:42:27.062Z,97.85
2023-01-17T01:43:48.012Z,97.64
2023-01-17T01:44:54.644Z,97.74
2023-01-17T01:45:59.044Z,97.67
2023-01-17T01:47:03.246Z,97.43
2023-01-17T01:48:34.061Z,97.35
2023-01-17T01:49:38.547Z,97.39
2023-01-17T01:50:43.728Z,97.01
2023-01-17T01:51:56.076Z,96.98
2023-01-17T01:53:03.612Z,97.17
2023-01-17T01:54:21.000Z,96.98
2023-01-17T01:55:31.219Z,97.29
2023-01-17T01:56:35.351Z,97.24
2023-01-17T01:57:45.669Z,97.13
2023-01-17T01:58:52.621Z,96.08
2023-01-17T02:00:06.565Z,96.54
2023-01-17T02:01:15.469Z,96.67
2023-01-17T02:02:19.486Z,96.67
2023-01-17T02:03:31.362Z,96.28
2023-01-17T02:04:35.941Z,96.03
2023-01-17T02:05:43.275Z,95.89
2023-01-17T02:06:53.165Z,95.75
2023-01-17T02:08:10.536Z,95.70
2023-01-17T02:09:18.228Z,95.38
2023-01-17T02:10:21.954Z,95.32
2023-01-17T02:11:29.013Z,95.08
2023-01-17T02:12:33.365Z,95.05
2023-01-17T02:13:37.286Z,94.77
2023-01-17T02:14:41.085Z,94.96
2023-01-17T02:37:26.069Z,95.65
2023-01-17T02:38:45.249Z,95.66
2023-01-17T02:40:24.888Z,95.21
2023-01-17T02:41:37.631Z,95.30
2023-01-17T02:42:53.443Z,95.22
2023-01-17T02:43:57.324Z,94.68
2023-01-17T02:45:04.432Z,94.88
2023-01-17T02:46:15.757Z,94.93
2023-01-17T02:47:30.459Z,94.86
2023-01-17T02:48:38.194Z,94.65
2023-01-17T02:49:42.180Z,94.70
2023-01-17T02:51:01.316Z,94.15
2023-01-17T02:52:53.472Z,94.34
2023-01-17T02:54:21.021Z,94.13
2023-01-17T02:55:38.038Z,94.13
2023-01-17T02:56:55.957Z,93.75
2023-01-17T02:58:31.432Z,93.68
2023-01-17T02:59:47.629Z,94.05
2023-01-17T03:01:25.406Z,93.94
2023-01-17T03:02:56.865Z,94.16
2023-01-17T03:04:15.292Z,94.20
2023-01-17T03:05:43.644Z,93.92
2023-01-17T03:06:57.098Z,93.97
2023-01-17T03:08:03.553Z,94.04
2023-01-17T03:09:13.813Z,93.99
2023-01-17T03:10:20.701Z,93.46
2023-01-17T03:11:24.649Z,93.34
2023-01-17T03:12:31.525Z,93.48
2023-01-17T03:13:35.694Z,93.38
2023-01-17T03:14:39.487Z,93.46
2023-01-17T03:15:43.943Z,93.25
2023-01-17T03:16:48.416Z,93.34
2023-01-17T03:17:58.466Z,93.27
2023-01-17T03:19:02.691Z,93.56
2023-01-17T03:20:10.604Z,93.63
2023-01-17T03:21:14.581Z,93.58
2023-01-17T03:22:18.471Z,93.63
2023-01-17T03:23:22.425Z,93.27
2023-01-17T03:24:26.004Z,93.04
2023-01-17T03:25:30.234Z,92.98
2023-01-17T03:26:34.507Z,92.71
2023-01-17T03:27:38.831Z,92.76
2023-01-17T03:28:45.496Z,92.68
2023-01-17T03:29:49.362Z,92.74
2023-01-17T03:30:53.722Z,92.83
2023-01-17T03:31:58.380Z,92.38
2023-01-17T03:33:02.101Z,92.85
2023-01-17T03:34:07.076Z,92.77
2023-01-17T03:35:11.590Z,92.50
2023-01-17T03:36:15.341Z,92.56
2023-01-17T03:37:19.003Z,92.17
2023-01-17T03:38:22.680Z,92.39
2023-01-17T03:39:26.465Z,92.14
2023-01-17T03:40:30.011Z,92.36
2023-01-17T03:41:33.753Z,92.17
2023-01-17T03:42:37.300Z,92.37
2023-01-17T03:43:40.876Z,92.72
2023-01-17T03:44:44.530Z,92.48
2023-01-17T03:45:54.577Z,92.62
2023-01-17T03:46:58.212Z,92.45
2023-01-17T03:48:01.859Z,92.24
2023-01-17T03:49:06.585Z,92.50
2023-01-17T03:50:13.754Z,92.76
2023-01-17T03:51:19.282Z,92.48
2023-01-17T03:52:23.350Z,92.47
2023-01-17T03:53:27.205Z,92.42
2023-01-17T03:54:31.531Z,92.32
2023-01-17T03:55:35.056Z,92.14
2023-01-17T03:56:39.057Z,92.02
2023-01-17T03:57:42.680Z,91.98
2023-01-17T03:58:49.443Z,92.11
2023-01-17T03:59:53.398Z,92.13
2023-01-17T04:00:57.148Z,92.17
2023-01-17T04:02:01.742Z,91.96
2023-01-17T04:03:06.029Z,92.14
2023-01-17T04:04:12.220Z,92.12
2023-01-17T04:05:17.439Z,92.26
2023-01-17T04:06:21.964Z,92.13
2023-01-17T04:07:27.022Z,92.20
2023-01-17T04:08:31.097Z,92.07
2023-01-17T04:09:35.901Z,92.21
2023-01-17T04:10:40.437Z,91.99
2023-01-17T04:11:44.905Z,92.03
2023-01-17T04:12:48.592Z,91.94
2023-01-17T04:13:52.517Z,91.92
2023-01-17T04:14:56.165Z,92.08
2023-01-17T04:15:59.911Z,91.99
2023-01-17T04:17:04.400Z,91.78
2023-01-17T04:18:24.653Z,91.87
2023-01-17T04:19:29.081Z,91.86
2023-01-17T04:20:38.100Z,91.95
2023-01-17T04:21:41.953Z,91.82
2023-01-17T04:22:45.709Z,91.86
2023-01-17T04:23:49.858Z,92.08
2023-01-17T04:24:54.402Z,92.03
2023-01-17T04:25:58.125Z,92.04
2023-01-17T04:27:02.813Z,91.66
2023-01-17T04:28:08.246Z,91.55
2023-01-17T04:29:14.618Z,91.55
2023-01-17T04:30:18.695Z,91.34
2023-01-17T04:31:22.761Z,91.17
2023-01-17T04:32:30.170Z,91.64
2023-01-17T04:33:34.118Z,91.58
2023-01-17T04:34:37.637Z,91.73
2023-01-17T04:35:41.771Z,92.10
2023-01-17T04:36:45.352Z,91.75
2023-01-17T04:37:49.426Z,91.66
2023-01-17T04:38:53.168Z,91.46
2023-01-17T04:40:00.352Z,91.49
2023-01-17T04:41:04.611Z,91.24
2023-01-17T04:42:09.681Z,91.36
2023-01-17T04:43:13.765Z,91.42
2023-01-17T04:44:18.675Z,91.54
2023-01-17T04:45:22.556Z,91.69
2023-01-17T04:46:27.180Z,91.49
2023-01-17T04:47:31.223Z,91.50
2023-01-17T04:48:34.976Z,91.25
2023-01-17T04:49:38.508Z,91.36
2023-01-17T04:50:42.270Z,91.41
2023-01-17T04:51:45.845Z,91.63
2023-01-17T04:52:49.552Z,91.88
2023-01-17T04:53:56.447Z,91.64
2023-01-17T04:55:02.924Z,91.84
2023-01-17T04:56:07.441Z,91.84
2023-01-17T04:57:11.377Z,91.80
2023-01-17T04:58:15.445Z,92.06
2023-01-17T04:59:19.512Z,92.25
2023-01-17T05:00:24.331Z,92.27
2023-01-17T05:01:28.275Z,92.07
2023-01-17T05:02:31.989Z,92.05
2023-01-17T05:03:35.920Z,92.23
2023-01-17T05:04:40.429Z,92.05
2023-01-17T05:05:44.815Z,91.91
2023-01-17T05:06:49.224Z,92.22
2023-01-17T05:07:57.818Z,92.37
2023-01-17T05:09:03.048Z,92.01
2023-01-17T05:10:14.190Z,92.15
2023-01-17T05:11:18.188Z,92.29
2023-01-17T05:12:22.708Z,92.32
2023-01-17T05:13:26.759Z,92.27
2023-01-17T05:14:30.546Z,92.49
2023-01-17T05:15:34.262Z,92.60
2023-01-17T05:16:37.947Z,92.64
2023-01-17T05:17:41.812Z,92.32
2023-01-17T05:18:45.635Z,92.61
2023-01-17T05:19:49.125Z,92.64
2023-01-17T05:20:52.991Z,92.46
2023-01-17T05:22:04.351Z,92.75
2023-01-17T05:23:11.002Z,92.67
2023-01-17T05:24:15.883Z,92.67
2023-01-17T05:25:19.948Z,93.10
2023-01-17T05:26:24.111Z,93.11
2023-01-17T05:27:27.919Z,92.49
2023-01-17T05:28:31.823Z,92.44
2023-01-17T05:29:35.770Z,92.61
2023-01-17T05:30:40.016Z,92.99
2023-01-17T05:31:43.821Z,92.98
2023-01-17T05:32:52.935Z,93.49
2023-01-17T05:33:56.738Z,93.37
2023-01-17T05:35:02.591Z,93.57
2023-01-17T05:36:12.863Z,93.65
2023-01-17T05:37:16.933Z,93.56
2023-01-17T05:38:20.524Z,93.51
2023-01-17T05:39:24.749Z,93.64
2023-01-17T05:40:31.696Z,93.88
2023-01-17T05:41:35.328Z,93.95
2023-01-17T05:42:39.192Z,93.84
2023-01-17T05:43:42.774Z,93.67
2023-01-17T05:44:46.401Z,93.71
2023-01-17T05:45:50.182Z,93.55
2023-01-17T05:46:54.936Z,93.48
2023-01-17T05:47:59.885Z,93.43
2023-01-17T05:49:03.866Z,93.37
2023-01-17T05:50:12.463Z,93.20
2023-01-17T05:51:16.025Z,93.10
2023-01-17T05:52:20.880Z,93.30
2023-01-17T05:53:25.955Z,93.24
2023-01-17T05:54:29.983Z,93.44
2023-01-17T05:55:35.206Z,93.38
2023-01-17T05:56:39.566Z,92.99
2023-01-17T05:57:43.353Z,93.13
2023-01-17T05:58:47.184Z,93.05
2023-01-17T05:59:51.004Z,93.27
2023-01-17T06:00:56.888Z,93.28
2023-01-17T06:02:01.249Z,93.08
2023-01-17T06:03:05.572Z,93.05
2023-01-17T06:04:14.131Z,92.90
2023-01-17T06:05:17.970Z,93.20
2023-01-17T06:06:21.811Z,92.79
2023-01-17T06:07:25.653Z,93.08
2023-01-17T06:08:30.096Z,93.08
2023-01-17T06:09:33.889Z,92.73
2023-01-17T06:10:37.680Z,92.89
2023-01-17T06:11:41.516Z,92.53
2023-01-17T06:12:46.915Z,92.87
2023-01-17T06:13:50.816Z,92.66
2023-01-17T06:14:54.770Z,92.80
2023-01-17T06:16:03.104Z,92.56
2023-01-17T06:17:09.582Z,92.91
2023-01-17T06:18:17.299Z,92.89
2023-01-17T06:19:20.884Z,92.69
2023-01-17T06:20:25.107Z,92.70
2023-01-17T06:21:30.965Z,92.82
2023-01-17T06:22:35.419Z,93.02
2023-01-17T06:23:42.804Z,93.12
2023-01-17T06:24:46.466Z,93.11
2023-01-17T06:25:51.076Z,92.87
2023-01-17T06:26:54.661Z,93.07
2023-01-17T06:27:58.403Z,92.80
2023-01-17T06:29:02.160Z,92.71
2023-01-17T06:30:10.769Z,92.67
2023-01-17T06:31:14.858Z,92.66
2023-01-17T06:32:18.716Z,92.99
2023-01-17T06:33:22.452Z,92.82
2023-01-17T06:34:26.718Z,92.86
2023-01-17T06:35:31.440Z,92.93
2023-01-17T06:36:35.900Z,92.94
2023-01-17T06:37:39.524Z,93.01
2023-01-17T06:38:43.234Z,93.45
2023-01-17T06:39:46.863Z,93.40
2023-01-17T06:40:50.464Z,93.52
2023-01-17T06:41:54.313Z,93.46
2023-01-17T06:43:03.088Z,93.56
2023-01-17T06:44:11.585Z,93.22
2023-01-17T06:45:15.432Z,93.62
2023-01-17T06:46:19.447Z,93.46
2023-01-17T06:47:24.717Z,93.42
2023-01-17T06:48:29.276Z,93.22
2023-01-17T06:49:33.301Z,93.57
2023-01-17T06:50:40.515Z,93.84
2023-01-17T06:51:44.232Z,94.29
2023-01-17T06:53:01.336Z,93.98
2023-01-17T06:54:12.055Z,93.69
2023-01-17T06:55:15.766Z,93.87
2023-01-17T06:56:20.357Z,93.54
2023-01-17T06:57:24.946Z,93.38
2023-01-17T06:58:30.006Z,93.58
2023-01-17T06:59:34.433Z,93.34
2023-01-17T07:00:40.737Z,93.20
2023-01-17T07:01:45.373Z,93.42
2023-01-17T07:02:53.449Z,93.27
2023-01-17T07:03:58.162Z,93.41
2023-01-17T07:05:02.012Z,93.20
2023-01-17T07:06:08.855Z,93.43
2023-01-17T07:07:16.870Z,93.46
2023-01-17T07:08:21.193Z,93.36
2023-01-17T07:09:25.385Z,93.45
2023-01-17T07:10:29.287Z,93.45
2023-01-17T07:11:35.016Z,93.43
2023-01-17T07:12:39.275Z,93.59
2023-01-17T07:13:46.088Z,93.55
2023-01-17T07:14:50.155Z,93.47
2023-01-17T07:15:54.356Z,93.43
2023-01-17T07:16:58.326Z,93.33
2023-01-17T07:18:03.827Z,93.59
2023-01-17T07:19:10.828Z,93.42
2023-01-17T07:20:15.315Z,93.33
2023-01-17T07:21:23.221Z,93.25
2023-01-17T07:22:27.093Z,93.18
2023-01-17T07:23:30.916Z,92.97
2023-01-17T07:24:36.619Z,93.53
2023-01-17T07:25:40.707Z,93.35
2023-01-17T07:26:48.222Z,93.33
2023-01-17T07:27:57.965Z,93.34
2023-01-17T07:29:02.110Z,93.34
2023-01-17T07:30:10.207Z,93.15
2023-01-17T07:31:14.598Z,93.19
2023-01-17T07:32:18.998Z,93.03
2023-01-17T07:33:23.517Z,93.65
2023-01-17T07:34:27.702Z,93.34
2023-01-17T07:35:31.649Z,93.37
2023-01-17T07:36:36.069Z,93.45
2023-01-17T07:37:40.514Z,93.21
2023-01-17T07:38:47.276Z,92.97
2023-01-17T07:39:50.978Z,92.87
2023-01-17T07:40:59.668Z,93.14
2023-01-17T07:42:03.700Z,92.95
2023-01-17T07:43:14.381Z,93.11
2023-01-17T07:44:18.056Z,93.20
2023-01-17T07:45:22.090Z,93.23
2023-01-17T07:46:26.099Z,92.86
2023-01-17T07:47:29.851Z,92.51
2023-01-17T07:48:34.017Z,92.58
2023-01-17T07:49:38.224Z,92.64
2023-01-17T07:50:42.066Z,92.73
2023-01-17T07:51:48.013Z,92.74
2023-01-17T07:52:52.197Z,92.66
2023-01-17T07:53:56.443Z,92.50
2023-01-17T07:55:00.535Z,92.45
2023-01-17T07:56:13.344Z,92.75
2023-01-17T07:57:17.227Z,92.30
2023-01-17T07:58:21.944Z,92.47
2023-01-17T07:59:26.071Z,92.73
2023-01-17T08:00:30.137Z,92.82
2023-01-17T08:01:34.407Z,92.53
2023-01-17T08:02:38.465Z,92.88
2023-01-17T08:03:43.121Z,92.74
2023-01-17T08:04:56.538Z,92.92
2023-01-17T08:06:00.516Z,92.73
2023-01-17T08:07:04.179Z,92.69
2023-01-17T08:08:13.155Z,92.96
2023-01-17T08:09:16.927Z,92.83
2023-01-17T08:10:21.574Z,92.69
2023-01-17T08:11:26.626Z,93.00
2023-01-17T08:12:30.440Z,92.83
2023-01-17T08:13:34.025Z,92.91
2023-01-17T08:14:37.745Z,92.76
2023-01-17T08:15:42.310Z,92.49
2023-01-17T08:16:46.509Z,92.20
2023-01-17T08:17:54.842Z,91.96
2023-01-17T08:18:58.628Z,92.33
2023-01-17T08:20:03.048Z,92.28
2023-01-17T08:21:15.007Z,92.20
2023-01-17T08:22:18.955Z,92.36
2023-01-17T08:23:23.130Z,91.69
2023-01-17T08:24:27.716Z,91.44
2023-01-17T08:25:34.119Z,91.55
2023-01-17T08:26:38.098Z,91.66
2023-01-17T08:27:42.040Z,91.77
2023-01-17T08:28:45.740Z,91.51
2023-01-17T08:29:49.803Z,91.45
2023-01-17T08:30:54.497Z,91.55
2023-01-17T08:31:58.239Z,91.10
2023-01-17T08:33:02.098Z,91.21
2023-01-17T08:34:14.884Z,91.25
2023-01-17T08:35:20.245Z,90.66
2023-01-17T08:36:28.728Z,90.59
2023-01-17T08:37:32.894Z,91.06
2023-01-17T08:38:36.654Z,90.83
2023-01-17T08:39:40.726Z,90.68
2023-01-17T08:40:45.142Z,90.47
2023-01-17T08:41:49.794Z,90.53
2023-01-17T08:42:59.270Z,90.50
2023-01-17T08:44:03.313Z,90.40
2023-01-17T08:45:14.053Z,90.44
2023-01-17T08:46:19.093Z,90.19
2023-01-17T08:47:23.663Z,89.76
2023-01-17T08:48:27.650Z,89.62
2023-01-17T08:49:31.584Z,89.57
2023-01-17T08:50:35.374Z,89.83
2023-01-17T08:51:41.899Z,89.87
2023-01-17T08:52:46.772Z,90.07
2023-01-17T08:53:50.561Z,89.69
2023-01-17T08:54:56.139Z,89.56
2023-01-17T08:56:02.129Z,89.28
2023-01-17T08:57:05.862Z,89.07
2023-01-17T08:58:11.841Z,89.05
2023-01-17T08:59:15.912Z,89.27
2023-01-17T09:00:20.405Z,88.94
2023-01-17T09:01:25.022Z,89.01
2023-01-17T09:02:29.053Z,89.18
2023-01-17T09:03:34.857Z,88.70
2023-01-17T09:04:38.474Z,88.78
2023-01-17T09:05:44.779Z,88.70
2023-01-17T09:06:49.268Z,88.45
2023-01-17T09:07:53.185Z,88.45
2023-01-17T09:08:57.169Z,88.56
2023-01-17T09:10:01.340Z,88.04
2023-01-17T09:11:11.455Z,87.60
2023-01-17T09:12:15.929Z,87.51
2023-01-17T09:13:19.964Z,87.84
2023-01-17T09:14:26.665Z,87.68
2023-01-17T09:15:30.605Z,86.76
2023-01-17T09:16:35.390Z,87.00
2023-01-17T09:17:39.753Z,87.53
2023-01-17T09:18:43.482Z,87.69
2023-01-17T09:19:48.990Z,87.42
2023-01-17T09:20:55.364Z,87.44
2023-01-17T09:21:59.126Z,86.60
2023-01-17T09:23:04.024Z,86.99
2023-01-17T09:24:12.724Z,86.97
2023-01-17T09:25:16.449Z,87.12
2023-01-17T09:26:27.278Z,86.92
2023-01-17T09:27:31.265Z,86.24
2023-01-17T09:28:41.174Z,86.22
2023-01-17T09:29:45.123Z,85.46
2023-01-17T09:30:53.828Z,85.38
2023-01-17T09:31:57.604Z,84.75
2023-01-17T09:33:01.410Z,84.12
2023-01-17T09:34:05.309Z,84.74
2023-01-17T09:35:13.766Z,84.94
2023-01-17T09:36:18.367Z,84.01
2023-01-17T09:37:22.061Z,84.00
2023-01-17T09:38:25.918Z,84.87
2023-01-17T09:39:29.487Z,84.68
2023-01-17T09:40:33.821Z,84.66
2023-01-17T09:42:12.642Z,83.67
2023-01-17T09:43:32.225Z,83.85
2023-01-17T09:44:47.779Z,84.01
2023-01-17T09:45:51.882Z,84.29
2023-01-17T09:47:08.047Z,84.07
2023-01-17T09:48:24.246Z,84.06
2023-01-17T09:49:31.576Z,84.14
2023-01-17T09:51:00.492Z,83.88
2023-01-17T09:52:06.324Z,83.48
2023-01-17T09:53:21.126Z,83.75
2023-01-17T09:54:35.981Z,83.17
2023-01-17T09:56:12.548Z,83.70
2023-01-17T09:57:44.680Z,83.53
2023-01-17T09:59:18.765Z,83.28
2023-01-17T10:00:36.759Z,82.71
2023-01-17T10:02:44.250Z,82.18
2023-01-17T10:04:10.350Z,82.92
2023-01-17T10:06:11.926Z,82.46
2023-01-17T10:07:53.868Z,82.76
2023-01-17T10:09:18.590Z,82.14
2023-01-17T10:10:54.558Z,81.56
2023-01-17T10:12:29.151Z,81.57
2023-01-17T10:13:59.389Z,81.10
2023-01-17T10:15:48.644Z,81.17
2023-01-17T10:17:02.426Z,81.38
2023-01-17T10:18:35.708Z,80.83
2023-01-17T10:20:13.809Z,79.77
2023-01-17T10:21:54.563Z,79.09
2023-01-17T10:23:33.861Z,78.62
2023-01-17T10:25:01.671Z,78.99
2023-01-17T10:26:26.689Z,78.54
2023-01-17T10:27:39.405Z,77.90
2023-01-17T10:28:53.202Z,78.84
2023-01-17T10:29:56.819Z,78.80
2023-01-17T10:31:26.703Z,77.10
2023-01-17T10:32:35.673Z,77.25
2023-01-17T10:33:58.434Z,77.32
2023-01-17T10:35:23.153Z,77.13
2023-01-17T10:36:35.286Z,77.57
2023-01-17T10:37:44.900Z,77.31
2023-01-17T10:39:21.423Z,75.41
2023-01-17T10:40:55.027Z,74.98
2023-01-17T10:42:13.596Z,75.98
2023-01-17T10:43:39.434Z,75.73
2023-01-17T10:45:05.794Z,75.10
2023-01-17T10:46:28.906Z,75.15
2023-01-17T10:47:37.764Z,74.89
2023-01-17T10:48:52.265Z,74.80
2023-01-17T10:50:02.159Z,74.88
2023-01-17T10:51:30.472Z,74.60
2023-01-17T10:53:11.608Z,74.71
2023-01-17T10:55:11.620Z,74.35
2023-01-17T10:56:18.632Z,74.40
2023-01-17T10:57:26.317Z,74.89
2023-01-17T10:58:32.040Z,73.74
2023-01-17T10:59:38.253Z,73.21
2023-01-17T11:01:17.585Z,73.31
2023-01-17T11:02:40.240Z,72.92
2023-01-17T11:03:50.971Z,73.66
2023-01-17T11:05:03.604Z,73.18
2023-01-17T11:06:27.904Z,72.86
2023-01-17T11:07:31.875Z,73.24
2023-01-17T11:09:00.349Z,72.68
2023-01-17T11:10:04.655Z,73.16
2023-01-17T11:11:14.250Z,72.93
2023-01-17T11:12:44.533Z,72.77
2023-01-17T11:13:51.278Z,72.47
2023-01-17T11:15:32.295Z,72.16
2023-01-17T11:16:37.691Z,72.19
2023-01-17T11:18:00.308Z,72.37
2023-01-17T11:19:30.551Z,71.91
2023-01-17T11:20:39.631Z,72.33
2023-01-17T11:22:01.958Z,71.92
2023-01-17T11:23:30.004Z,71.57
2023-01-17T11:24:51.809Z,71.34
2023-01-17T11:26:03.302Z,70.63
2023-01-17T11:27:28.328Z,69.96
2023-01-17T11:28:36.120Z,70.37
2023-01-17T11:29:40.745Z,70.50
2023-01-17T11:30:58.218Z,70.00
2023-01-17T11:32:23.581Z,69.26
2023-01-17T11:33:48.000Z,69.21
2023-01-17T11:35:16.165Z,69.07
2023-01-17T11:36:27.875Z,68.48
2023-01-17T11:37:31.708Z,68.72
2023-01-17T11:38:35.402Z,68.15
2023-01-17T11:39:38.998Z,66.91
2023-01-17T11:40:48.489Z,66.45
2023-01-17T11:41:53.160Z,65.42
2023-01-17T11:43:11.196Z,65.00
2023-01-17T11:44:35.995Z,65.00
2023-01-17T11:45:41.396Z,64.97
2023-01-17T11:46:44.912Z,64.73
2023-01-17T11:47:48.501Z,64.37
2023-01-17T11:49:02.584Z,63.36
2023-01-17T11:50:26.920Z,62.99
2023-01-17T11:51:34.756Z,63.69
2023-01-17T11:52:39.268Z,62.77
2023-01-17T11:53:49.939Z,61.93
2023-01-17T11:54:55.799Z,62.76
2023-01-17T11:56:12.270Z,62.40
2023-01-17T11:57:33.484Z,62.27
2023-01-17T11:58:45.982Z,61.93
2023-01-17T11:59:53.185Z,62.39
2023-01-17T12:01:13.551Z,62.13
2023-01-17T12:02:53.958Z,61.93
2023-01-17T12:04:24.546Z,61.73
2023-01-17T12:05:47.236Z,61.54
2023-01-17T12:07:35.935Z,62.36
2023-01-17T12:09:25.392Z,61.98
2023-01-17T12:11:02.922Z,61.79
2023-01-17T12:12:32.117Z,61.57
2023-01-17T12:13:59.970Z,61.61
2023-01-17T12:15:43.564Z,61.47
2023-01-17T12:17:50.587Z,62.05
2023-01-17T12:19:43.770Z,61.58
2023-01-17T12:21:25.659Z,61.97
2023-01-17T12:23:17.233Z,60.92
2023-01-17T12:24:32.517Z,61.19
2023-01-17T12:26:05.178Z,61.09
2023-01-17T12:27:32.235Z,60.81
2023-01-17T12:29:31.311Z,60.87
2023-01-17T12:31:16.869Z,61.15
2023-01-17T12:32:34.964Z,61.01
2023-01-17T12:34:00.678Z,61.19
2023-01-17T12:35:28.286Z,61.31
2023-01-17T12:37:07.344Z,61.53
2023-01-17T12:38:32.117Z,61.43
2023-01-17T12:39:43.967Z,61.53
2023-01-17T12:41:03.307Z,61.65
2023-01-17T12:42:24.943Z,61.53
2023-01-17T12:43:37.385Z,61.81
2023-01-17T12:45:11.893Z,61.25
2023-01-17T12:46:30.330Z,61.12
2023-01-17T12:47:45.561Z,61.32
2023-01-17T12:49:18.440Z,61.05
2023-01-17T12:50:37.200Z,60.49
2023-01-17T12:51:47.504Z,60.47
2023-01-17T12:53:59.486Z,60.45
2023-01-17T12:55:20.794Z,60.64
2023-01-17T12:56:46.140Z,60.58
2023-01-17T12:58:00.331Z,60.64
2023-01-17T12:59:30.205Z,60.44
2023-01-17T13:00:39.638Z,60.55
2023-01-17T13:02:26.579Z,59.94
2023-01-17T13:03:45.757Z,59.23
2023-01-17T13:05:11.652Z,59.15
2023-01-17T13:06:32.894Z,59.25
2023-01-17T13:08:38.888Z,59.22
2023-01-17T13:10:25.657Z,58.86
2023-01-17T13:11:46.748Z,58.57
2023-01-17T13:12:53.053Z,58.60
2023-01-17T13:14:00.288Z,58.94
2023-01-17T13:15:17.547Z,58.71
2023-01-17T13:16:36.748Z,58.60
2023-01-17T13:17:52.438Z,58.55
2023-01-17T13:19:07.601Z,58.50
2023-01-17T13:21:20.443Z,57.85
2023-01-17T13:22:27.240Z,59.71
2023-01-17T13:23:41.060Z,59.61
2023-01-17T13:24:57.953Z,60.18
2023-01-17T13:26:08.117Z,61.75
2023-01-17T13:27:49.566Z,60.81
2023-01-17T13:29:23.704Z,63.02
2023-01-17T13:30:43.685Z,59.88
2023-01-17T13:32:10.765Z,62.17
2023-01-17T13:33:46.030Z,59.94
2023-01-17T13:35:19.331Z,59.68
2023-01-17T13:36:35.000Z,60.04
2023-01-17T13:38:55.196Z,58.75
2023-01-17T13:40:43.247Z,57.43
2023-01-17T13:42:33.089Z,57.30
2023-01-17T13:44:02.633Z,56.79
2023-01-17T13:45:21.275Z,56.52
2023-01-17T13:46:29.961Z,57.49
2023-01-17T13:47:40.572Z,57.21
2023-01-17T13:48:44.628Z,56.73
2023-01-17T13:49:54.070Z,57.40
2023-01-17T13:51:06.249Z,57.02
2023-01-17T13:52:19.535Z,56.95
2023-01-17T13:53:41.456Z,57.23
2023-01-17T13:54:56.641Z,56.95
2023-01-17T13:56:16.140Z,56.68
2023-01-17T13:57:29.263Z,57.23
2023-01-17T13:59:02.987Z,57.12
2023-01-17T14:00:21.731Z,57.25
2023-01-17T14:01:26.012Z,57.15
2023-01-17T14:02:33.062Z,56.93
2023-01-17T14:03:54.733Z,56.78
2023-01-17T14:05:17.645Z,57.13
2023-01-17T14:06:51.231Z,56.71
2023-01-17T14:08:02.312Z,56.59
2023-01-17T14:09:37.029Z,56.99
2023-01-17T14:10:47.787Z,56.81
2023-01-17T14:12:03.447Z,56.81
2023-01-17T14:13:35.468Z,57.12
2023-01-17T14:14:42.933Z,57.29
2023-01-17T14:15:52.032Z,57.65
2023-01-17T14:17:16.625Z,57.28
2023-01-17T14:18:42.976Z,57.62
2023-01-17T14:19:51.036Z,57.65
2023-01-17T14:21:20.039Z,57.64
2023-01-17T14:22:40.481Z,57.99
2023-01-17T14:24:15.708Z,57.42
2023-01-17T14:25:30.294Z,57.62
2023-01-17T14:27:16.620Z,57.64
2023-01-17T14:28:32.611Z,58.04
2023-01-17T14:30:00.433Z,58.24
2023-01-17T14:31:11.986Z,58.13
2023-01-17T14:32:37.907Z,58.25
2023-01-17T14:33:42.873Z,58.29
2023-01-17T14:34:51.425Z,58.25
2023-01-17T14:36:28.355Z,57.96
2023-01-17T14:37:54.160Z,58.11
2023-01-17T14:38:58.032Z,58.62
2023-01-17T14:40:02.871Z,58.43
2023-01-17T14:41:21.207Z,58.16
2023-01-17T14:42:29.790Z,58.17
2023-01-17T14:43:39.072Z,58.09
2023-01-17T14:44:54.760Z,58.44
2023-01-17T14:46:07.844Z,58.39
2023-01-17T14:47:16.082Z,58.35
2023-01-17T14:48:24.020Z,58.57
2023-01-17T14:49:27.769Z,58.31
2023-01-17T14:50:38.065Z,58.46
2023-01-17T14:51:41.839Z,58.65
2023-01-17T14:52:45.677Z,58.50
2023-01-17T14:53:58.543Z,58.48
2023-01-17T14:55:19.042Z,58.67
2023-01-17T14:56:25.481Z,58.65
2023-01-17T14:57:30.177Z,58.86
2023-01-17T14:58:39.468Z,59.16
2023-01-17T14:59:43.115Z,59.01
2023-01-17T15:00:50.230Z,59.33
2023-01-17T15:02:08.149Z,59.38
2023-01-17T15:03:14.512Z,58.70
2023-01-17T15:04:29.493Z,58.86
2023-01-17T15:05:50.421Z,59.43
2023-01-17T15:07:01.554Z,58.87
2023-01-17T15:08:12.119Z,58.95
2023-01-17T15:09:31.489Z,59.00
2023-01-17T15:10:44.574Z,59.26
2023-01-17T15:11:55.427Z,59.40
2023-01-17T15:13:14.443Z,59.39
2023-01-17T15:14:23.664Z,59.35
2023-01-17T15:15:38.671Z,59.23
2023-01-17T15:16:43.582Z,59.14
2023-01-17T15:17:47.381Z,59.41
2023-01-17T15:18:54.004Z,59.23
2023-01-17T15:20:08.439Z,59.70
2023-01-17T15:21:23.113Z,59.59
2023-01-17T15:22:36.115Z,59.43
2023-01-17T15:24:04.301Z,59.47
2023-01-17T15:25:14.751Z,59.95
2023-01-17T15:26:25.908Z,59.71
2023-01-17T15:27:30.086Z,59.85
2023-01-17T15:28:35.508Z,59.83
2023-01-17T15:29:41.840Z,60.22
2023-01-17T15:31:13.514Z,60.09
2023-01-17T15:32:22.550Z,60.53
2023-01-17T15:33:30.271Z,60.51
2023-01-17T15:34:44.820Z,60.46
2023-01-17T15:35:48.480Z,60.54
2023-01-17T15:36:53.186Z,60.79
2023-01-17T15:37:58.524Z,60.78
2023-01-17T15:39:18.175Z,60.86
2023-01-17T15:40:28.164Z,61.13
2023-01-17T15:41:39.788Z,61.42
2023-01-17T15:42:46.980Z,61.50
2023-01-17T15:43:57.684Z,61.47
2023-01-17T15:45:07.794Z,61.68
2023-01-17T15:46:41.360Z,61.79
2023-01-17T15:47:48.487Z,62.06
2023-01-17T15:48:52.623Z,62.21
2023-01-17T15:49:56.771Z,62.23
2023-01-17T15:51:03.947Z,62.27
2023-01-17T15:52:17.195Z,62.87